首页
METAR-TAF:

METAR-TAF

机场 :

迈克蒂亚西蒙·玻利瓦尔国际机场

卡拉卡斯, 委内瑞拉

纬度: 10-36N, 经度: 066-59W, 海拔: 43米

当前天气观测

该预报发布于21分钟前的17:02 UTC
风速10节,风向东转东北
温度
气压 1016 hPa

METAR: SVMI 081702Z AUTO 07010KT NCD ///// Q1016

时间: 13:23 (17:23 UTC)

预报

该预报发布于7小时和23分钟前的10:00 UTC
预报有效从08日的 12点(UTC)到 09日的 12点(UTC)
风速6节,风向东转东北
能见度10公里或以上
散云层高于1600英尺
成为
从 08日的 12点(UTC)到 08日的 16点(UTC)
风速5节,风向东转东南
能見度: 9000
多云层高于1600英尺
小毛毛雨

TAF: SVMI 081000Z 0812/0912 06006KT 9999 SCT016 TX32/0818Z TN24/0808Z BECMG 0812/0816 11005KT 9000 -DZ BKN016

超过4000个机场的气象观测和天气预报(METAR&TAF报告)。

可查询的气象台以黄色和红色小点在地图上表示。

将鼠标移到小点上方,可查看气象台名称。

然后点击查看天气观测和预报。

如需切换地图:点击带黑十字的绿色按钮放大地图;点击带横线的绿色按钮缩小地图;或者点击绿色箭头查看邻近地区的地图。


METAR-TAF: